createdAt,value
2022-09-15T00:00:53.130Z,989.53
2022-09-15T00:01:53.176Z,989.69
2022-09-15T00:02:53.232Z,989.92
2022-09-15T00:03:53.110Z,990.19
2022-09-15T00:04:53.090Z,990.13
2022-09-15T00:05:53.080Z,990.10
2022-09-15T00:06:53.079Z,990.47
2022-09-15T00:07:53.079Z,990.55
2022-09-15T00:08:53.044Z,990.51
2022-09-15T00:09:53.056Z,991.02
2022-09-15T00:10:53.033Z,990.60
2022-09-15T00:11:53.021Z,990.44
2022-09-15T00:12:53.019Z,990.51
2022-09-15T00:13:53.001Z,990.72
2022-09-15T00:14:52.971Z,991.26
2022-09-15T00:15:52.964Z,991.76
2022-09-15T00:16:52.986Z,991.24
2022-09-15T00:17:52.951Z,991.53
2022-09-15T00:18:52.975Z,991.54
2022-09-15T00:19:52.934Z,991.53
2022-09-15T00:20:52.926Z,991.33
2022-09-15T00:21:52.904Z,990.95
2022-09-15T00:22:52.892Z,991.30
2022-09-15T00:23:52.891Z,991.33
2022-09-15T00:24:52.861Z,991.15
2022-09-15T00:25:52.854Z,991.06
2022-09-15T00:26:52.844Z,991.33
2022-09-15T00:27:52.844Z,991.27
2022-09-15T00:28:52.824Z,991.16
2022-09-15T00:29:52.824Z,991.28
2022-09-15T00:30:52.897Z,991.47
2022-09-15T00:31:52.785Z,991.57
2022-09-15T00:32:52.794Z,991.66
2022-09-15T00:33:52.766Z,991.77
2022-09-15T00:34:52.762Z,991.67
2022-09-15T00:35:52.735Z,991.48
2022-09-15T00:36:52.745Z,991.46
2022-09-15T00:37:52.736Z,991.35
2022-09-15T00:38:52.715Z,991.21
2022-09-15T00:39:52.743Z,991.63
2022-09-15T00:40:52.685Z,992.00
2022-09-15T00:41:52.666Z,992.17
2022-09-15T00:42:52.678Z,991.97
2022-09-15T00:43:52.848Z,991.90
2022-09-15T00:44:52.637Z,991.73
2022-09-15T00:45:52.644Z,991.64
2022-09-15T00:47:15.282Z,991.54
2022-09-15T00:47:53.607Z,991.41
2022-09-15T00:48:52.638Z,991.48
2022-09-15T00:49:56.965Z,991.30
2022-09-15T00:50:53.586Z,991.27
2022-09-15T00:51:52.561Z,991.02
2022-09-15T00:52:52.558Z,991.08
2022-09-15T00:53:52.546Z,990.97
2022-09-15T00:54:52.523Z,991.03
2022-09-15T00:55:52.511Z,990.99
2022-09-15T00:56:52.524Z,990.97
2022-09-15T00:57:52.507Z,990.54
2022-09-15T00:58:52.567Z,990.58
2022-09-15T00:59:52.460Z,990.46
2022-09-15T01:00:52.506Z,990.54
2022-09-15T01:01:52.535Z,990.70
2022-09-15T01:02:52.699Z,990.57
2022-09-15T01:03:52.436Z,990.70
2022-09-15T01:04:57.465Z,990.84
2022-09-15T01:05:53.408Z,991.03
2022-09-15T01:06:52.403Z,991.01
2022-09-15T01:07:52.389Z,991.00
2022-09-15T01:08:52.385Z,990.59
2022-09-15T01:09:52.351Z,990.46
2022-09-15T01:10:52.351Z,990.58
2022-09-15T01:11:52.355Z,990.50
2022-09-15T01:12:52.315Z,990.60
2022-09-15T01:13:52.310Z,991.35
2022-09-15T01:14:52.306Z,991.63
2022-09-15T01:15:52.280Z,991.49
2022-09-15T01:16:52.362Z,991.54
2022-09-15T01:17:52.263Z,991.51
2022-09-15T01:18:52.251Z,991.86
2022-09-15T01:19:52.233Z,991.69
2022-09-15T01:20:52.248Z,991.29
2022-09-15T01:21:55.627Z,991.09
2022-09-15T01:22:53.202Z,991.10
2022-09-15T01:23:52.250Z,991.25
2022-09-15T01:24:52.202Z,990.97
2022-09-15T01:25:52.172Z,991.54
2022-09-15T01:26:52.164Z,991.74
2022-09-15T01:27:52.183Z,992.16
2022-09-15T01:28:52.192Z,992.19
2022-09-15T01:29:52.133Z,992.54
2022-09-15T01:30:52.124Z,992.93
2022-09-15T01:31:52.184Z,993.42
2022-09-15T01:32:52.085Z,993.62
2022-09-15T01:33:52.076Z,994.02
2022-09-15T01:34:52.077Z,994.36
2022-09-15T01:35:52.058Z,994.02
2022-09-15T01:36:52.054Z,993.77
2022-09-15T01:37:52.036Z,993.70
2022-09-15T01:38:52.128Z,993.78
2022-09-15T01:39:52.022Z,994.24
2022-09-15T01:40:51.987Z,994.78
2022-09-15T01:41:52.015Z,995.29
2022-09-15T01:42:51.967Z,995.49
2022-09-15T01:43:52.009Z,995.53
2022-09-15T01:44:51.963Z,995.52
2022-09-15T01:45:52.004Z,995.50
2022-09-15T01:46:51.927Z,995.32
2022-09-15T01:47:51.918Z,995.61
2022-09-15T01:48:51.930Z,995.71
2022-09-15T01:49:51.890Z,995.85
2022-09-15T01:50:51.886Z,996.23
2022-09-15T01:51:51.901Z,996.36
2022-09-15T01:52:51.879Z,996.09
2022-09-15T01:53:51.942Z,996.02
2022-09-15T01:54:51.848Z,995.85
2022-09-15T01:55:51.832Z,996.56
2022-09-15T01:56:51.840Z,996.47
2022-09-15T01:57:51.799Z,996.56
2022-09-15T01:58:51.912Z,996.71
2022-09-15T01:59:51.770Z,996.71
2022-09-15T02:00:51.829Z,996.89
2022-09-15T02:01:51.945Z,996.86
2022-09-15T02:02:51.752Z,997.07
2022-09-15T02:03:51.741Z,996.82
2022-09-15T02:04:51.722Z,996.82
2022-09-15T02:05:51.711Z,996.67
2022-09-15T02:06:51.709Z,996.59
2022-09-15T02:07:51.692Z,996.74
2022-09-15T02:08:51.784Z,996.47
2022-09-15T02:09:51.665Z,996.69
2022-09-15T02:10:51.654Z,996.37
2022-09-15T02:11:51.664Z,996.55
2022-09-15T02:12:51.632Z,996.50
2022-09-15T02:13:51.613Z,996.06
2022-09-15T02:14:51.614Z,995.91
2022-09-15T02:15:51.624Z,995.87
2022-09-15T02:16:51.661Z,995.45
2022-09-15T02:17:51.572Z,995.67
2022-09-15T02:18:51.573Z,996.02
2022-09-15T02:19:51.555Z,995.78
2022-09-15T02:20:51.545Z,995.84
2022-09-15T02:21:51.536Z,995.62
2022-09-15T02:22:51.534Z,995.54
2022-09-15T02:23:51.586Z,995.21
2022-09-15T02:24:51.503Z,994.95
2022-09-15T02:25:51.496Z,994.54
2022-09-15T02:26:51.498Z,994.65
2022-09-15T02:27:51.458Z,994.89
2022-09-15T02:28:51.455Z,994.66
2022-09-15T02:29:51.458Z,994.80
2022-09-15T02:30:51.421Z,994.92
2022-09-15T02:31:51.534Z,995.28
2022-09-15T02:32:51.405Z,995.27
2022-09-15T02:33:51.402Z,994.78
2022-09-15T02:34:51.376Z,994.62
2022-09-15T02:35:51.384Z,994.49
2022-09-15T02:36:51.367Z,994.56
2022-09-15T02:37:51.347Z,994.58
2022-09-15T02:38:51.443Z,994.54
2022-09-15T02:39:51.408Z,994.56
2022-09-15T02:40:51.317Z,994.98
2022-09-15T02:41:51.309Z,995.13
2022-09-15T02:42:51.307Z,995.59
2022-09-15T02:43:51.287Z,995.85
2022-09-15T02:44:51.268Z,996.15
2022-09-15T02:45:51.360Z,996.91
2022-09-15T02:46:51.258Z,997.46
2022-09-15T02:47:51.238Z,997.56
2022-09-15T02:48:51.219Z,997.74
2022-09-15T02:49:51.239Z,997.82
2022-09-15T02:50:51.198Z,997.87
2022-09-15T02:51:51.226Z,998.10
2022-09-15T02:52:51.189Z,997.86
2022-09-15T02:53:51.255Z,997.57
2022-09-15T02:54:51.159Z,997.64
2022-09-15T02:55:51.140Z,997.05
2022-09-15T02:56:51.160Z,996.51
2022-09-15T02:57:51.121Z,996.55
2022-09-15T02:58:51.111Z,996.32
2022-09-15T02:59:51.109Z,996.21
2022-09-15T03:00:51.142Z,996.09
2022-09-15T03:01:51.139Z,995.96
2022-09-15T03:02:51.073Z,995.48
2022-09-15T03:03:51.060Z,995.52
2022-09-15T03:04:51.051Z,995.31
2022-09-15T03:05:51.025Z,994.73
2022-09-15T03:06:51.053Z,994.68
2022-09-15T03:07:51.012Z,994.66
2022-09-15T03:08:51.268Z,993.97
2022-09-15T03:09:50.989Z,993.97
2022-09-15T03:10:50.982Z,993.72
2022-09-15T03:11:50.994Z,993.82
2022-09-15T03:12:50.955Z,993.26
2022-09-15T03:13:50.947Z,993.15
2022-09-15T03:14:50.926Z,993.10
2022-09-15T03:15:50.921Z,993.17
2022-09-15T03:16:50.927Z,993.16
2022-09-15T03:17:50.893Z,993.38
2022-09-15T03:18:50.894Z,993.23
2022-09-15T03:19:50.877Z,992.85
2022-09-15T03:20:50.865Z,992.55
2022-09-15T03:21:50.845Z,992.18
2022-09-15T03:22:50.835Z,992.21
2022-09-15T03:23:50.894Z,991.64
2022-09-15T03:24:50.813Z,991.75
2022-09-15T03:25:50.799Z,991.82
2022-09-15T03:26:50.816Z,991.43
2022-09-15T03:27:50.776Z,991.49
2022-09-15T03:28:50.770Z,991.65
2022-09-15T03:29:50.748Z,991.85
2022-09-15T03:30:50.758Z,992.02
2022-09-15T03:31:50.766Z,992.08
2022-09-15T03:32:50.718Z,992.06
2022-09-15T03:33:50.727Z,991.81
2022-09-15T03:34:52.410Z,991.84
2022-09-15T03:35:50.688Z,991.98
2022-09-15T03:36:50.701Z,991.94
2022-09-15T03:37:50.667Z,992.13
2022-09-15T03:38:50.824Z,992.17
2022-09-15T03:39:50.698Z,992.06
2022-09-15T03:40:50.660Z,992.35
2022-09-15T03:41:50.628Z,992.14
2022-09-15T03:42:50.608Z,992.19
2022-09-15T03:43:50.609Z,992.20
2022-09-15T03:44:50.589Z,992.20
2022-09-15T03:45:50.618Z,992.17
2022-09-15T03:46:50.589Z,992.09
2022-09-15T03:47:50.559Z,991.84
2022-09-15T03:48:50.532Z,991.92
2022-09-15T03:49:50.532Z,992.08
2022-09-15T03:50:50.510Z,992.31
2022-09-15T03:51:50.528Z,991.90
2022-09-15T03:52:50.489Z,992.65
2022-09-15T03:53:50.523Z,993.27
2022-09-15T03:54:50.470Z,993.87
2022-09-15T03:55:50.462Z,994.39
2022-09-15T03:56:50.441Z,995.00
2022-09-15T03:57:50.451Z,995.46
2022-09-15T03:58:50.422Z,996.15
2022-09-15T03:59:50.421Z,997.08
2022-09-15T04:00:50.456Z,997.68
2022-09-15T04:01:50.453Z,998.17
2022-09-15T04:02:50.388Z,998.49
2022-09-15T04:03:51.517Z,998.85
2022-09-15T04:04:50.364Z,999.29
2022-09-15T04:05:50.351Z,999.91
2022-09-15T04:06:50.363Z,1000.30
2022-09-15T04:07:50.339Z,1000.81
2022-09-15T04:08:50.331Z,1001.19
2022-09-15T04:09:50.303Z,1001.85
2022-09-15T04:10:50.294Z,1002.50
2022-09-15T04:11:50.294Z,1003.15
2022-09-15T04:12:50.272Z,1004.01
2022-09-15T04:13:50.244Z,1004.41
2022-09-15T04:14:50.256Z,1005.21
2022-09-15T04:15:50.268Z,1005.89
2022-09-15T04:16:50.228Z,1006.36
2022-09-15T04:17:50.214Z,1007.21
2022-09-15T04:18:50.206Z,1007.65
2022-09-15T04:19:50.185Z,1008.02
2022-09-15T04:20:50.185Z,1008.14
2022-09-15T04:21:50.175Z,1008.60
2022-09-15T04:22:50.155Z,1008.78
2022-09-15T04:23:50.155Z,1009.08
2022-09-15T04:24:50.137Z,1009.47
2022-09-15T04:25:50.115Z,1009.53
2022-09-15T04:26:50.120Z,1009.31
2022-09-15T04:27:50.100Z,1009.04
2022-09-15T04:28:50.080Z,1009.29
2022-09-15T04:29:50.070Z,1009.06
2022-09-15T04:30:50.055Z,1009.04
2022-09-15T04:31:50.152Z,1009.08
2022-09-15T04:32:50.039Z,1009.09
2022-09-15T04:33:50.027Z,1009.22
2022-09-15T04:34:50.062Z,1009.10
2022-09-15T04:35:50.007Z,1009.09
2022-09-15T04:36:49.997Z,1009.41
2022-09-15T04:37:50.009Z,1009.53
2022-09-15T04:38:49.988Z,1009.83
2022-09-15T04:39:50.042Z,1009.84
2022-09-15T04:40:49.938Z,1010.20
2022-09-15T04:41:49.973Z,1010.82
2022-09-15T04:42:49.929Z,1011.05
2022-09-15T04:43:49.919Z,1011.36
2022-09-15T04:44:49.910Z,1012.21
2022-09-15T04:45:49.900Z,1012.90
2022-09-15T04:46:49.940Z,1013.70
2022-09-15T04:47:49.871Z,1014.25
2022-09-15T04:48:49.849Z,1014.95
2022-09-15T04:49:49.848Z,1015.69
2022-09-15T04:50:49.820Z,1016.24
2022-09-15T04:51:49.842Z,1017.17
2022-09-15T04:52:49.810Z,1017.44
2022-09-15T04:53:49.815Z,1017.75
2022-09-15T04:54:49.792Z,1018.05
2022-09-15T04:55:49.781Z,1017.85
2022-09-15T04:56:49.782Z,1018.05
2022-09-15T04:57:49.741Z,1018.12
2022-09-15T04:58:49.742Z,1018.17
2022-09-15T04:59:49.724Z,1018.41
2022-09-15T05:00:49.867Z,1018.41
2022-09-15T05:01:49.796Z,1018.77
2022-09-15T05:02:49.702Z,1018.68
2022-09-15T05:03:49.683Z,1018.71
2022-09-15T05:04:49.674Z,1018.80
2022-09-15T05:05:49.654Z,1018.79
2022-09-15T05:06:49.653Z,1018.98
2022-09-15T05:07:49.637Z,1018.94
2022-09-15T05:08:49.627Z,1018.64
2022-09-15T05:09:49.614Z,1017.87
2022-09-15T05:10:49.623Z,1018.02
2022-09-15T05:11:49.604Z,1017.71
2022-09-15T05:12:49.586Z,1017.81
2022-09-15T05:13:49.571Z,1018.09
2022-09-15T05:14:49.544Z,1018.73
2022-09-15T05:15:49.619Z,1019.04
2022-09-15T05:16:49.546Z,1019.01
2022-09-15T05:17:49.513Z,1018.90
2022-09-15T05:18:49.507Z,1019.16
2022-09-15T05:19:49.497Z,1019.10
2022-09-15T05:20:49.485Z,1019.04
2022-09-15T05:21:49.493Z,1019.14
2022-09-15T05:22:49.468Z,1019.17
2022-09-15T05:23:49.447Z,1019.32
2022-09-15T05:24:49.431Z,1019.81
2022-09-15T05:25:49.436Z,1019.85
2022-09-15T05:26:49.417Z,1019.74
2022-09-15T05:27:49.407Z,1020.20
2022-09-15T05:28:49.416Z,1020.87
2022-09-15T05:29:49.385Z,1021.24
2022-09-15T05:30:49.608Z,1021.51
2022-09-15T05:31:49.408Z,1022.27
2022-09-15T05:32:49.356Z,1022.65
2022-09-15T05:33:49.332Z,1023.04
2022-09-15T05:34:49.328Z,1023.32
2022-09-15T05:35:49.308Z,1023.70
2022-09-15T05:36:49.312Z,1023.83
2022-09-15T05:37:49.280Z,1023.91
2022-09-15T05:38:49.282Z,1024.06
2022-09-15T05:39:49.356Z,1024.42
2022-09-15T05:40:49.262Z,1024.47
2022-09-15T05:41:49.250Z,1024.61
2022-09-15T05:42:49.507Z,1024.92
2022-09-15T05:43:49.221Z,1024.82
2022-09-15T05:44:49.202Z,1024.87
2022-09-15T05:45:49.203Z,1024.94
2022-09-15T05:46:49.261Z,1024.82
2022-09-15T05:47:49.165Z,1024.85
2022-09-15T05:48:49.170Z,1025.00
2022-09-15T05:49:49.154Z,1025.08
2022-09-15T05:50:49.143Z,1025.20
2022-09-15T05:51:49.150Z,1025.41
2022-09-15T05:52:49.132Z,1025.49
2022-09-15T05:53:49.101Z,1025.71
2022-09-15T05:54:49.113Z,1025.40
2022-09-15T05:55:49.081Z,1025.27
2022-09-15T05:56:49.093Z,1025.01
2022-09-15T05:57:49.168Z,1025.00
2022-09-15T05:58:49.052Z,1024.91
2022-09-15T05:59:49.052Z,1024.87
2022-09-15T06:00:49.013Z,1024.85
2022-09-15T06:01:49.070Z,1024.72
2022-09-15T06:02:49.059Z,1024.76
2022-09-15T06:03:48.993Z,1024.85
2022-09-15T06:04:48.972Z,1025.07
2022-09-15T06:05:48.979Z,1025.54
2022-09-15T06:06:48.965Z,1025.97
2022-09-15T06:07:48.953Z,1026.16
2022-09-15T06:08:50.084Z,1026.07
2022-09-15T06:09:48.913Z,1025.88
2022-09-15T06:10:48.903Z,1026.00
2022-09-15T06:11:48.913Z,1026.17
2022-09-15T06:12:48.894Z,1026.27
2022-09-15T06:13:48.872Z,1026.09
2022-09-15T06:14:48.854Z,1026.34
2022-09-15T06:15:48.921Z,1026.48
2022-09-15T06:16:48.846Z,1026.71
2022-09-15T06:17:48.825Z,1027.23
2022-09-15T06:18:48.823Z,1027.54
2022-09-15T06:19:48.815Z,1027.64
2022-09-15T06:20:48.798Z,1027.66
2022-09-15T06:21:48.794Z,1027.55
2022-09-15T06:22:48.766Z,1027.20
2022-09-15T06:23:50.889Z,1026.71
2022-09-15T06:24:48.738Z,1026.40
2022-09-15T06:25:48.745Z,1026.11
2022-09-15T06:26:48.736Z,1026.15
2022-09-15T06:27:48.710Z,1025.95
2022-09-15T06:28:48.707Z,1025.51
2022-09-15T06:29:48.688Z,1025.08
2022-09-15T06:30:48.685Z,1025.20
2022-09-15T06:31:48.704Z,1025.84
2022-09-15T06:32:48.659Z,1025.91
2022-09-15T06:33:48.645Z,1023.80
2022-09-15T06:34:48.627Z,1021.76
2022-09-15T06:35:48.618Z,1020.14
2022-09-15T06:36:48.618Z,1019.53
2022-09-15T06:37:48.598Z,1019.10
2022-09-15T06:38:48.602Z,1018.25
2022-09-15T06:39:48.620Z,1017.65
2022-09-15T06:40:48.568Z,1017.87
2022-09-15T06:42:01.716Z,1016.69
2022-09-15T06:42:49.549Z,1014.79
2022-09-15T06:43:48.529Z,1012.41
2022-09-15T06:44:48.519Z,1009.29
2022-09-15T06:45:48.561Z,1007.06
2022-09-15T06:46:48.520Z,1007.32
2022-09-15T06:47:58.270Z,1008.90
2022-09-15T06:48:49.489Z,1013.12
2022-09-15T06:49:48.460Z,1015.91
2022-09-15T06:50:48.461Z,1018.12
2022-09-15T06:51:48.452Z,1020.44
2022-09-15T06:52:48.443Z,1022.80
2022-09-15T06:53:48.411Z,1024.15
2022-09-15T06:54:48.404Z,1024.77
2022-09-15T06:55:48.392Z,1026.15
2022-09-15T06:56:48.407Z,1027.75
2022-09-15T06:57:48.391Z,1029.35
2022-09-15T06:58:48.362Z,1030.65
2022-09-15T06:59:48.352Z,1029.10
2022-09-15T07:00:48.334Z,1028.03
2022-09-15T07:01:48.359Z,1027.56
2022-09-15T07:02:48.462Z,1026.39
2022-09-15T07:03:48.370Z,1023.70
2022-09-15T07:04:48.282Z,1021.19
2022-09-15T07:05:48.294Z,1020.11
2022-09-15T07:06:48.277Z,1019.19
2022-09-15T07:07:48.254Z,1017.53
2022-09-15T07:08:48.245Z,1016.08
2022-09-15T07:09:49.173Z,1015.50
2022-09-15T07:10:48.222Z,1015.48
2022-09-15T07:11:48.234Z,1016.99
2022-09-15T07:12:48.205Z,1019.99
2022-09-15T07:13:48.195Z,1022.66
2022-09-15T07:14:48.176Z,1024.42
2022-09-15T07:15:48.174Z,1025.65
2022-09-15T07:16:48.208Z,1025.26
2022-09-15T07:17:48.146Z,1024.59
2022-09-15T07:18:48.133Z,1023.44
2022-09-15T07:19:48.137Z,1022.33
2022-09-15T07:20:48.115Z,1022.05
2022-09-15T07:21:48.128Z,1019.77
2022-09-15T07:22:48.097Z,1016.20
2022-09-15T07:23:48.086Z,1012.32
2022-09-15T07:24:48.065Z,1008.22
2022-09-15T07:25:48.069Z,1003.81
2022-09-15T07:26:48.057Z,1003.10
2022-09-15T07:27:48.028Z,1004.48
2022-09-15T07:28:48.045Z,1008.04
2022-09-15T07:29:48.017Z,1008.30
2022-09-15T07:30:48.011Z,1009.37
2022-09-15T07:31:48.046Z,1005.70
2022-09-15T07:32:48.003Z,1000.04
2022-09-15T07:33:47.969Z,1000.40
2022-09-15T07:34:47.949Z,1001.48
2022-09-15T07:35:47.961Z,1001.47
2022-09-15T07:36:47.972Z,1002.09
2022-09-15T07:37:47.921Z,1002.44
2022-09-15T07:38:47.929Z,1006.35
2022-09-15T07:39:47.949Z,1009.85
2022-09-15T07:40:47.900Z,1013.49
2022-09-15T07:41:47.889Z,1016.05
2022-09-15T07:42:47.872Z,1013.21
2022-09-15T07:43:47.859Z,1008.55
2022-09-15T07:44:47.843Z,1005.21
2022-09-15T07:45:47.894Z,1003.05
2022-09-15T07:46:47.840Z,1002.18
2022-09-15T07:47:47.811Z,1003.93
2022-09-15T07:48:47.820Z,1005.80
2022-09-15T07:49:47.801Z,1008.90
2022-09-15T07:50:47.796Z,1008.39
2022-09-15T07:51:47.791Z,1005.74
2022-09-15T07:52:47.777Z,1002.23
2022-09-15T07:53:47.743Z,1004.20
2022-09-15T07:54:47.751Z,1004.52
2022-09-15T07:55:47.733Z,1009.50
2022-09-15T07:56:47.738Z,1016.97
2022-09-15T07:57:47.706Z,1019.23
2022-09-15T07:58:47.703Z,1020.47
2022-09-15T07:59:47.695Z,1023.82
2022-09-15T08:00:47.737Z,1023.98
2022-09-15T08:01:47.729Z,1023.59
2022-09-15T08:02:47.654Z,1023.17
2022-09-15T08:03:47.634Z,1021.89
2022-09-15T08:04:47.625Z,1023.08
2022-09-15T08:05:47.636Z,1024.60
2022-09-15T08:06:47.624Z,1026.25
2022-09-15T08:07:47.603Z,1027.17
2022-09-15T08:08:47.590Z,1027.72
2022-09-15T08:09:47.586Z,1028.50
2022-09-15T08:10:47.565Z,1028.32
2022-09-15T08:11:47.570Z,1025.66
2022-09-15T08:12:47.536Z,1023.40
2022-09-15T08:13:47.598Z,1020.58
2022-09-15T08:14:47.526Z,1017.77
2022-09-15T08:15:47.672Z,1016.32
2022-09-15T08:16:47.516Z,1015.90
2022-09-15T08:17:47.497Z,1016.31
2022-09-15T08:18:47.477Z,1016.15
2022-09-15T08:19:47.475Z,1016.86
2022-09-15T08:20:47.466Z,1018.78
2022-09-15T08:21:47.457Z,1020.57
2022-09-15T08:22:47.442Z,1020.26
2022-09-15T08:23:47.428Z,1018.94
2022-09-15T08:24:47.412Z,1017.42
2022-09-15T08:25:47.412Z,1016.99
2022-09-15T08:26:47.407Z,1017.03
2022-09-15T08:27:47.372Z,1017.12
2022-09-15T08:28:47.378Z,1016.49
2022-09-15T08:29:47.367Z,1014.92
2022-09-15T08:30:47.341Z,1012.95
2022-09-15T08:31:47.382Z,1011.52
2022-09-15T08:32:47.328Z,1011.24
2022-09-15T08:33:47.300Z,1012.41
2022-09-15T08:34:47.294Z,1015.14
2022-09-15T08:35:47.282Z,1017.96
2022-09-15T08:36:47.302Z,1018.78
2022-09-15T08:37:47.254Z,1019.34
2022-09-15T08:38:47.255Z,1019.39
2022-09-15T08:39:47.272Z,1019.62
2022-09-15T08:40:47.235Z,1020.58
2022-09-15T08:41:47.221Z,1020.93
2022-09-15T08:42:47.212Z,1021.07
2022-09-15T08:43:47.182Z,1021.14
2022-09-15T08:44:47.177Z,1022.89
2022-09-15T08:45:47.163Z,1025.34
2022-09-15T08:46:47.269Z,1027.65
2022-09-15T08:47:47.133Z,1029.41
2022-09-15T08:48:47.134Z,1029.31
2022-09-15T08:49:51.864Z,1026.09
2022-09-15T08:50:48.114Z,1023.04
2022-09-15T08:51:47.094Z,1020.66
2022-09-15T08:52:47.090Z,1017.26
2022-09-15T08:53:47.067Z,1015.11
2022-09-15T08:54:47.054Z,1013.07
2022-09-15T08:55:47.045Z,1015.72
2022-09-15T08:56:47.060Z,1015.42
2022-09-15T08:57:47.026Z,1020.99
2022-09-15T08:58:47.009Z,1025.50
2022-09-15T08:59:47.009Z,1031.91
2022-09-15T09:00:46.977Z,1038.40
2022-09-15T09:01:47.028Z,1042.43
2022-09-15T09:02:47.035Z,1039.48
2022-09-15T09:03:46.956Z,1032.80
2022-09-15T09:04:46.938Z,1030.86
2022-09-15T09:05:46.935Z,1030.37
2022-09-15T09:06:46.937Z,1029.87
2022-09-15T09:07:46.907Z,1029.76
2022-09-15T09:08:46.887Z,1029.79
2022-09-15T09:09:46.891Z,1026.48
2022-09-15T09:10:46.871Z,1022.09
2022-09-15T09:11:46.889Z,1018.20
2022-09-15T09:12:46.850Z,1019.68
2022-09-15T09:13:46.838Z,1018.82
2022-09-15T09:14:46.811Z,1026.14
2022-09-15T09:15:46.895Z,1031.69
2022-09-15T09:16:46.809Z,1028.46
2022-09-15T09:17:46.789Z,1026.76
2022-09-15T09:18:46.769Z,1028.70
2022-09-15T09:19:46.770Z,1032.36
2022-09-15T09:20:46.760Z,1032.06
2022-09-15T09:21:46.769Z,1026.72
2022-09-15T09:22:46.731Z,1017.83
2022-09-15T09:23:46.728Z,1004.88
2022-09-15T09:24:46.703Z,999.23
2022-09-15T09:25:46.691Z,1005.77
2022-09-15T09:26:46.693Z,1008.06
2022-09-15T09:27:46.673Z,1013.48
2022-09-15T09:28:46.652Z,1017.60
2022-09-15T09:29:46.661Z,1014.13
2022-09-15T09:30:46.687Z,1001.58
2022-09-15T09:31:46.642Z,994.92
2022-09-15T09:32:46.624Z,993.10
2022-09-15T09:33:47.882Z,986.59
2022-09-15T09:34:46.584Z,977.75
2022-09-15T09:35:46.583Z,972.22
2022-09-15T09:36:46.584Z,971.63
2022-09-15T09:37:46.560Z,978.27
2022-09-15T09:38:46.543Z,988.17
2022-09-15T09:39:46.586Z,993.25
2022-09-15T09:40:46.540Z,992.30
2022-09-15T09:41:46.520Z,988.50
2022-09-15T09:42:46.495Z,994.53
2022-09-15T09:43:46.499Z,1004.68
2022-09-15T09:44:46.477Z,1013.88
2022-09-15T09:45:46.525Z,1019.95
2022-09-15T09:46:46.452Z,1022.33
2022-09-15T09:47:46.461Z,1018.37
2022-09-15T09:48:46.428Z,1014.51
2022-09-15T09:49:46.435Z,1016.27
2022-09-15T09:50:46.446Z,1010.39
2022-09-15T09:51:46.396Z,1008.32
2022-09-15T09:52:46.376Z,1005.44
2022-09-15T09:53:46.377Z,1003.56
2022-09-15T09:54:46.356Z,1000.56
2022-09-15T09:55:46.365Z,997.95
2022-09-15T09:56:46.342Z,995.56
2022-09-15T09:57:46.334Z,995.57
2022-09-15T09:58:46.326Z,994.45
2022-09-15T09:59:46.313Z,997.37
2022-09-15T10:00:46.308Z,998.30
2022-09-15T10:01:46.309Z,998.70
2022-09-15T10:02:46.290Z,1002.96
2022-09-15T10:03:46.249Z,1006.56
2022-09-15T10:04:46.287Z,1009.96
2022-09-15T10:05:46.255Z,1011.69
2022-09-15T10:06:46.223Z,1011.34
2022-09-15T10:07:46.222Z,1009.78
2022-09-15T10:08:46.200Z,1005.73
2022-09-15T10:09:46.192Z,1001.65
2022-09-15T10:10:46.181Z,1003.36
2022-09-15T10:11:46.167Z,1000.66
2022-09-15T10:12:46.152Z,1002.02
2022-09-15T10:13:46.143Z,1003.82
2022-09-15T10:14:46.137Z,1003.58
2022-09-15T10:15:46.104Z,1005.67
2022-09-15T10:16:46.330Z,1012.54
2022-09-15T10:17:46.123Z,1019.71
2022-09-15T10:18:46.090Z,1021.13
2022-09-15T10:19:46.073Z,1017.17
2022-09-15T10:20:46.063Z,1013.36
2022-09-15T10:21:46.044Z,1007.18
2022-09-15T10:22:46.054Z,998.72
2022-09-15T10:23:46.024Z,992.00
2022-09-15T10:24:46.012Z,987.16
2022-09-15T10:26:01.354Z,991.75
2022-09-15T10:26:46.987Z,999.79
2022-09-15T10:27:46.004Z,1004.25
2022-09-15T10:28:45.965Z,1002.38
2022-09-15T10:29:45.956Z,998.41
2022-09-15T10:30:45.946Z,994.77
2022-09-15T10:31:46.026Z,992.69
2022-09-15T10:32:45.906Z,995.67
2022-09-15T10:33:45.929Z,1003.03
2022-09-15T10:34:45.901Z,1011.04
2022-09-15T10:35:45.877Z,1018.41
2022-09-15T10:36:45.895Z,1023.04
2022-09-15T10:37:45.861Z,1023.39
2022-09-15T10:38:45.878Z,1022.67
2022-09-15T10:39:45.916Z,1020.32
2022-09-15T10:40:45.843Z,1021.73
2022-09-15T10:41:45.819Z,1025.67
2022-09-15T10:42:45.799Z,1025.71
2022-09-15T10:43:45.821Z,1022.03
2022-09-15T10:44:45.779Z,1015.68
2022-09-15T10:45:45.810Z,1013.57
2022-09-15T10:46:45.782Z,1012.89
2022-09-15T10:47:45.750Z,1012.63
2022-09-15T10:48:45.730Z,1012.55
2022-09-15T10:49:45.727Z,1013.57
2022-09-15T10:50:45.731Z,1013.02
2022-09-15T10:51:45.701Z,1013.82
2022-09-15T10:52:45.721Z,1012.70
2022-09-15T10:53:45.686Z,1013.61
2022-09-15T10:54:45.670Z,1016.80
2022-09-15T10:55:53.662Z,1017.79
2022-09-15T10:56:46.649Z,1016.13
2022-09-15T10:57:45.639Z,1015.34
2022-09-15T10:58:46.019Z,1014.44
2022-09-15T10:59:45.616Z,1012.23
2022-09-15T11:00:45.663Z,1009.05
2022-09-15T11:01:45.635Z,1004.98
2022-09-15T11:02:45.591Z,1004.96
2022-09-15T11:03:45.600Z,1004.43
2022-09-15T11:04:45.573Z,1006.30
2022-09-15T11:05:45.547Z,1009.76
2022-09-15T11:06:45.537Z,1013.33
2022-09-15T11:07:45.525Z,1016.29
2022-09-15T11:08:45.590Z,1018.65
2022-09-15T11:09:45.507Z,1018.66
2022-09-15T11:10:45.503Z,1018.17
2022-09-15T11:11:45.486Z,1019.82
2022-09-15T11:12:45.466Z,1019.93
2022-09-15T11:13:45.488Z,1019.88
2022-09-15T11:14:45.459Z,1020.61
2022-09-15T11:15:45.447Z,1018.54
2022-09-15T11:16:45.451Z,1015.58
2022-09-15T11:17:45.426Z,1013.08
2022-09-15T11:18:45.420Z,1011.07
2022-09-15T11:19:45.409Z,1008.53
2022-09-15T11:20:45.417Z,1007.68
2022-09-15T11:21:45.631Z,1006.72
2022-09-15T11:22:49.440Z,1006.85
2022-09-15T11:23:45.380Z,1002.84
2022-09-15T11:24:45.346Z,1001.62
2022-09-15T11:25:45.359Z,1002.09
2022-09-15T11:26:45.321Z,1000.63
2022-09-15T11:27:45.338Z,1000.39
2022-09-15T11:28:45.289Z,1000.56
2022-09-15T11:29:45.280Z,1000.52
2022-09-15T11:30:47.729Z,998.58
2022-09-15T11:31:45.379Z,996.20
2022-09-15T11:32:45.249Z,992.30
2022-09-15T11:33:45.301Z,985.04
2022-09-15T11:34:45.223Z,984.69
2022-09-15T11:35:45.222Z,986.96
2022-09-15T11:36:45.206Z,990.31
2022-09-15T11:37:45.205Z,993.41
2022-09-15T11:38:45.213Z,996.77
2022-09-15T11:39:45.199Z,991.84
2022-09-15T11:40:45.172Z,986.30
2022-09-15T11:41:45.162Z,983.21
2022-09-15T11:42:45.163Z,980.56
2022-09-15T11:43:45.127Z,977.49
2022-09-15T11:44:45.142Z,972.14
2022-09-15T11:45:45.128Z,964.72
2022-09-15T11:46:45.150Z,958.91
2022-09-15T11:47:45.095Z,957.49
2022-09-15T11:48:45.175Z,962.09
2022-09-15T11:49:45.069Z,969.27
2022-09-15T11:50:45.077Z,980.36
2022-09-15T11:51:45.056Z,988.95
2022-09-15T11:52:45.041Z,993.59
2022-09-15T11:53:45.023Z,995.04
2022-09-15T11:54:45.011Z,997.46
2022-09-15T11:55:45.008Z,999.69
2022-09-15T11:56:44.976Z,1006.63
2022-09-15T11:57:44.983Z,1006.45
2022-09-15T11:58:44.980Z,1004.50
2022-09-15T11:59:44.957Z,999.04
2022-09-15T12:00:44.957Z,994.08
2022-09-15T12:01:45.005Z,995.70
2022-09-15T12:02:44.982Z,996.59
2022-09-15T12:03:44.981Z,993.59
2022-09-15T12:04:44.898Z,993.76
2022-09-15T12:05:44.908Z,992.63
2022-09-15T12:06:45.926Z,992.46
2022-09-15T12:07:44.879Z,997.98
2022-09-15T12:08:44.881Z,989.96
2022-09-15T12:09:44.830Z,986.18
2022-09-15T12:10:44.860Z,983.57
2022-09-15T12:11:44.833Z,979.41
2022-09-15T12:12:44.801Z,977.64
2022-09-15T12:13:44.791Z,976.54
2022-09-15T12:14:44.808Z,974.33
2022-09-15T12:15:45.316Z,977.68